Columbus, Ohio
Traffic Map
Current Weather Conditions
Columbus, Ohio
Overcast
Overcast
43°
Feels Like: 39°
Wind Chill: 39° Ceiling: 1100
Heat Index: 43° Visibility: 10mi
Dew Point: 36° Wind: 7mph
Humidity: 76% Direction: 100° (E)
Pressure: 30.01in Gusts: 0mph
Raw Report DataKCMH 191751Z 10006KT 10SM OVC011 06/02 A3001 RMK AO2 SLP168 T00610022 10061 20039 58024
Traffic Incident Summary
Active as of:
Severity:
Category:
InformationThere was an issue retrieving the traffic information for this location. Please try a different location or try again shortly.
Advertisements
Track Severe Weather on mobile